KESC/ESC METAR and TAF weather

Enter ICAO airport designator
Station Type Date Time Source
KESC METAR 2022/10/01 08:56 UTC NOAA

KESC 010856Z AUTO 00000KT 9SM CLR 04/04 A3023 RMK AO2 SLP242 6//// T00390039 56003 PNO $


Station Type Date Time Source
KESC Decoded METAR 2022/10/01 08:56 UTC NOAA

Escanaba, MI, United States (KESC) 45-45N 087-02W 187M
Oct 01, 2022 - 04:56 AM EDT / 2022.10.01 0856 UTC
Wind: Calm:0
Visibility: 9 mile(s):0
Sky conditions: clear
Temperature: 39.0 F (3.9 C)
Dew Point: 39.0 F (3.9 C)
Relative Humidity: 100%
Pressure (altimeter): 30.23 in. Hg (1023 hPa)
Pressure tendency: 0.01 inches (0.3 hPa) lower than three hours ago
ob: KESC 010856Z AUTO 00000KT 9SM CLR 04/04 A3023 RMK AO2 SLP242 6//// T00390039 56003 PNO
cycle: 9

Station Type Date Time Source
KESC TAF UTC NOAA

Error!

Example: see airport list